createdAt,value
2023-01-25T00:01:53.414Z,0.83
2023-01-25T00:04:59.358Z,0.72
2023-01-25T00:08:06.738Z,0.71
2023-01-25T00:11:11.815Z,0.72
2023-01-25T00:14:17.789Z,0.72
2023-01-25T00:17:23.678Z,0.71
2023-01-25T00:20:30.360Z,0.70
2023-01-25T00:23:36.301Z,0.74
2023-01-25T00:26:44.677Z,0.76
2023-01-25T00:29:51.155Z,0.68
2023-01-25T00:33:08.285Z,0.52
2023-01-25T00:36:14.618Z,0.39
2023-01-25T00:39:20.737Z,0.35
2023-01-25T00:42:28.337Z,0.43
2023-01-25T00:45:34.475Z,0.49
2023-01-25T00:48:42.530Z,0.50
2023-01-25T00:51:48.497Z,0.54
2023-01-25T00:54:53.949Z,0.58
2023-01-25T00:57:59.951Z,0.57
2023-01-25T01:01:07.885Z,0.57
2023-01-25T01:04:13.383Z,0.61
2023-01-25T01:07:18.528Z,0.62
2023-01-25T01:10:24.303Z,0.60
2023-01-25T01:13:29.044Z,0.55
2023-01-25T01:16:36.152Z,0.52
2023-01-25T01:19:41.533Z,0.55
2023-01-25T01:22:47.900Z,0.55
2023-01-25T01:25:53.913Z,0.55
2023-01-25T01:29:00.417Z,0.53
2023-01-25T01:32:08.014Z,0.54
2023-01-25T01:35:14.140Z,0.57
2023-01-25T01:38:22.310Z,0.63
2023-01-25T01:41:28.300Z,0.66
2023-01-25T01:44:36.011Z,0.63
2023-01-25T01:47:56.689Z,0.62
2023-01-25T01:51:04.907Z,0.56
2023-01-25T01:54:31.539Z,0.58
2023-01-25T01:57:43.587Z,0.62
2023-01-25T02:00:53.570Z,0.66
2023-01-25T02:03:58.821Z,0.63
2023-01-25T02:07:14.797Z,0.62
2023-01-25T02:10:24.351Z,0.64
2023-01-25T02:13:31.140Z,0.66
2023-01-25T02:16:40.611Z,0.65
2023-01-25T02:20:21.482Z,0.52
2023-01-25T02:23:47.575Z,0.46
2023-01-25T02:26:54.837Z,0.40
2023-01-25T02:29:59.755Z,0.40
2023-01-25T02:33:05.312Z,0.41
2023-01-25T02:36:27.796Z,0.48
2023-01-25T02:39:34.540Z,0.55
2023-01-25T02:42:44.181Z,0.59
2023-01-25T02:45:50.347Z,0.63
2023-01-25T02:48:57.589Z,0.66
2023-01-25T02:52:05.549Z,0.69
2023-01-25T02:55:11.671Z,0.70
2023-01-25T02:58:19.507Z,0.72
2023-01-25T03:01:26.038Z,0.69
2023-01-25T03:04:32.227Z,0.68
2023-01-25T03:07:38.882Z,0.66
2023-01-25T03:10:44.824Z,0.59
2023-01-25T03:13:51.572Z,0.59
2023-01-25T03:16:57.947Z,0.53
2023-01-25T03:20:04.995Z,0.48
2023-01-25T03:23:11.750Z,0.48
2023-01-25T03:26:30.829Z,0.50
2023-01-25T03:29:39.994Z,0.55
2023-01-25T03:32:46.914Z,0.51
2023-01-25T03:35:53.929Z,0.49
2023-01-25T03:38:59.695Z,0.45
2023-01-25T03:42:06.518Z,0.48
2023-01-25T03:45:13.506Z,0.43
2023-01-25T03:48:19.665Z,0.37
2023-01-25T03:51:25.826Z,0.37
2023-01-25T03:54:32.065Z,0.41
2023-01-25T03:57:39.405Z,0.46
2023-01-25T04:00:46.682Z,0.52
2023-01-25T04:03:51.398Z,0.49
2023-01-25T04:06:57.979Z,0.38
2023-01-25T04:10:03.702Z,0.39
2023-01-25T04:13:12.328Z,0.41
2023-01-25T04:16:21.729Z,0.47
2023-01-25T04:19:32.078Z,0.50
2023-01-25T04:22:39.844Z,0.41
2023-01-25T04:25:45.527Z,0.36
2023-01-25T04:28:51.613Z,0.34
2023-01-25T04:31:58.539Z,0.25
2023-01-25T04:35:04.894Z,0.22
2023-01-25T04:38:11.244Z,0.26
2023-01-25T04:41:16.214Z,0.33
2023-01-25T04:44:21.963Z,0.38
2023-01-25T04:47:29.909Z,0.36
2023-01-25T04:50:36.806Z,0.40
2023-01-25T04:53:42.710Z,0.44
2023-01-25T04:56:49.046Z,0.49
2023-01-25T04:59:54.955Z,0.51
2023-01-25T05:03:00.090Z,0.55
2023-01-25T05:06:07.807Z,0.54
2023-01-25T05:09:13.058Z,0.55
2023-01-25T05:12:21.175Z,0.48
2023-01-25T05:15:31.144Z,0.50
2023-01-25T05:18:47.997Z,0.54
2023-01-25T05:22:03.769Z,0.58
2023-01-25T05:25:14.379Z,0.60
2023-01-25T05:28:21.090Z,0.54
2023-01-25T05:31:36.572Z,0.56
2023-01-25T05:34:31.217Z,0.58
2023-01-25T05:37:36.905Z,0.59
2023-01-25T05:40:44.362Z,0.56
2023-01-25T05:43:49.430Z,0.52
2023-01-25T05:46:57.285Z,0.48
2023-01-25T05:50:03.173Z,0.50
2023-01-25T05:53:29.005Z,0.48
2023-01-25T05:56:34.602Z,0.50
2023-01-25T05:59:42.404Z,0.55
2023-01-25T06:02:50.684Z,0.57
2023-01-25T06:05:57.421Z,0.59
2023-01-25T06:09:05.998Z,0.50
2023-01-25T06:12:13.767Z,0.53
2023-01-25T06:15:21.463Z,0.57
2023-01-25T06:18:30.601Z,0.62
2023-01-25T06:21:39.833Z,0.62
2023-01-25T06:24:46.744Z,0.63
2023-01-25T06:27:53.104Z,0.66
2023-01-25T06:30:59.823Z,0.73
2023-01-25T06:34:09.838Z,0.76
2023-01-25T06:37:16.169Z,0.74
2023-01-25T06:40:22.067Z,0.70
2023-01-25T06:43:28.256Z,0.72
2023-01-25T06:46:34.732Z,0.69
2023-01-25T06:49:40.570Z,0.67
2023-01-25T06:52:44.830Z,0.64
2023-01-25T06:55:52.842Z,0.65
2023-01-25T06:58:59.312Z,0.61
2023-01-25T07:02:05.657Z,0.56
2023-01-25T07:05:15.605Z,0.64
2023-01-25T07:08:21.639Z,0.71
2023-01-25T07:11:31.141Z,0.74
2023-01-25T07:14:36.733Z,0.77
2023-01-25T07:17:41.535Z,0.81
2023-01-25T07:20:51.073Z,0.84
2023-01-25T07:23:58.057Z,0.90
2023-01-25T07:27:08.889Z,0.99
2023-01-25T07:30:14.347Z,1.10
2023-01-25T07:33:19.267Z,1.14
2023-01-25T07:36:51.379Z,1.21
2023-01-25T07:39:59.157Z,1.32
2023-01-25T07:43:06.215Z,1.39
2023-01-25T07:46:21.633Z,1.42
2023-01-25T07:49:26.757Z,1.40
2023-01-25T07:52:33.580Z,1.37
2023-01-25T07:55:40.522Z,1.42
2023-01-25T07:58:48.722Z,1.53
2023-01-25T08:01:54.532Z,1.60
2023-01-25T08:05:02.900Z,1.65
2023-01-25T08:08:09.237Z,1.73
2023-01-25T08:11:26.560Z,1.64
2023-01-25T08:14:33.453Z,1.62
2023-01-25T08:17:41.746Z,1.58
2023-01-25T08:20:48.826Z,1.53
2023-01-25T08:24:01.465Z,1.51
2023-01-25T08:27:08.737Z,1.42
2023-01-25T08:30:14.677Z,1.39
2023-01-25T08:33:20.767Z,1.45
2023-01-25T08:36:33.406Z,1.44
2023-01-25T08:39:39.412Z,1.47
2023-01-25T08:42:46.151Z,1.54
2023-01-25T08:45:51.108Z,1.62
2023-01-25T08:48:56.537Z,1.64
2023-01-25T08:52:02.215Z,1.59
2023-01-25T08:55:08.124Z,1.59
2023-01-25T08:58:15.409Z,1.66
2023-01-25T09:01:45.771Z,1.65
2023-01-25T09:04:53.039Z,1.69
2023-01-25T09:08:01.191Z,1.69
2023-01-25T09:11:08.916Z,1.74
2023-01-25T09:14:15.842Z,1.82
2023-01-25T09:17:23.808Z,1.94
2023-01-25T09:20:33.135Z,2.09
2023-01-25T09:23:50.702Z,2.21
2023-01-25T09:26:59.930Z,2.15
2023-01-25T09:30:13.519Z,2.13
2023-01-25T09:33:16.083Z,2.13
2023-01-25T09:36:24.714Z,2.06
2023-01-25T09:39:31.552Z,2.04
2023-01-25T09:43:10.896Z,2.12
2023-01-25T09:46:21.328Z,2.19
2023-01-25T09:49:47.378Z,2.31
2023-01-25T09:53:33.545Z,2.53
2023-01-25T09:56:44.286Z,2.69
2023-01-25T09:59:49.814Z,2.84
2023-01-25T10:03:11.834Z,2.86
2023-01-25T10:06:16.926Z,2.97
2023-01-25T10:09:58.416Z,3.11
2023-01-25T10:13:06.757Z,3.14
2023-01-25T10:16:28.527Z,3.16
2023-01-25T10:19:48.157Z,3.24
2023-01-25T10:23:02.919Z,3.30
2023-01-25T10:26:15.991Z,3.30
2023-01-25T10:29:31.407Z,3.35
2023-01-25T10:32:51.136Z,3.45
2023-01-25T10:35:53.459Z,3.55
2023-01-25T10:39:03.581Z,3.60
2023-01-25T10:42:16.966Z,3.65
2023-01-25T10:45:28.193Z,3.46
2023-01-25T10:48:40.702Z,3.39
2023-01-25T10:51:49.496Z,3.49
2023-01-25T10:54:57.382Z,3.56
2023-01-25T10:58:11.220Z,3.48
2023-01-25T11:01:18.376Z,3.50
2023-01-25T11:04:46.560Z,3.51
2023-01-25T11:07:53.531Z,3.49
2023-01-25T11:10:58.052Z,3.41
2023-01-25T11:14:03.942Z,3.22
2023-01-25T11:17:10.904Z,3.09
2023-01-25T11:20:33.787Z,2.94
2023-01-25T11:23:41.593Z,2.86
2023-01-25T11:26:50.368Z,2.93
2023-01-25T11:29:57.845Z,3.04
2023-01-25T11:33:03.211Z,3.13
2023-01-25T11:36:42.048Z,3.25
2023-01-25T11:40:25.654Z,3.32
2023-01-25T11:43:58.769Z,3.39
2023-01-25T11:47:57.110Z,3.43
2023-01-25T11:51:13.849Z,3.40
2023-01-25T11:54:44.456Z,3.37
2023-01-25T11:58:16.848Z,3.39
2023-01-25T12:01:51.191Z,3.31
2023-01-25T12:05:26.992Z,3.30
2023-01-25T12:08:47.656Z,3.29
2023-01-25T12:12:14.210Z,3.18
2023-01-25T12:15:34.988Z,3.15
2023-01-25T12:18:51.016Z,3.13
2023-01-25T12:22:21.989Z,3.19
2023-01-25T12:25:49.880Z,3.07
2023-01-25T12:29:18.233Z,3.03
2023-01-25T12:32:48.147Z,2.92
2023-01-25T12:36:09.001Z,2.78
2023-01-25T12:39:29.374Z,2.70
2023-01-25T12:42:40.511Z,2.58
2023-01-25T12:45:51.982Z,2.57
2023-01-25T12:49:01.781Z,2.61
2023-01-25T12:52:07.893Z,2.64
2023-01-25T12:55:19.791Z,2.60
2023-01-25T12:58:59.848Z,2.53
2023-01-25T13:02:31.288Z,2.44
2023-01-25T13:06:05.448Z,2.48
2023-01-25T13:09:31.233Z,2.61
2023-01-25T13:12:37.263Z,2.73
2023-01-25T13:15:57.070Z,2.69
2023-01-25T13:19:05.172Z,2.63
2023-01-25T13:22:12.685Z,2.63
2023-01-25T13:25:21.679Z,2.63
2023-01-25T13:28:57.556Z,2.66
2023-01-25T13:32:04.006Z,2.67
2023-01-25T13:35:12.145Z,2.59
2023-01-25T13:38:24.318Z,2.47
2023-01-25T13:41:34.632Z,2.43
2023-01-25T13:44:50.792Z,2.41
2023-01-25T13:47:57.477Z,2.37
2023-01-25T13:51:11.365Z,2.33
2023-01-25T13:54:18.300Z,2.33
2023-01-25T13:57:29.333Z,2.32
2023-01-25T14:00:36.392Z,2.30
2023-01-25T14:03:57.172Z,2.30
2023-01-25T14:07:02.325Z,2.21
2023-01-25T14:10:08.975Z,2.09
2023-01-25T14:13:14.761Z,2.01
2023-01-25T14:16:24.638Z,1.94
2023-01-25T14:19:43.214Z,1.89
2023-01-25T14:22:49.571Z,1.85
2023-01-25T14:25:56.591Z,1.83
2023-01-25T14:29:11.512Z,1.77
2023-01-25T14:32:15.565Z,1.75
2023-01-25T14:36:03.482Z,1.70
2023-01-25T14:39:06.852Z,1.66
2023-01-25T14:42:12.782Z,1.60
2023-01-25T14:45:19.346Z,1.62
2023-01-25T14:48:54.334Z,1.63
2023-01-25T14:52:23.022Z,1.65
2023-01-25T14:55:29.768Z,1.65
2023-01-25T14:58:41.103Z,1.59
2023-01-25T15:01:53.847Z,1.55
2023-01-25T15:05:18.151Z,1.57
2023-01-25T15:08:29.502Z,1.60
2023-01-25T15:11:56.839Z,1.65
2023-01-25T15:15:07.425Z,1.59
2023-01-25T15:18:12.814Z,1.59
2023-01-25T15:21:17.813Z,1.59
2023-01-25T15:24:24.540Z,1.57
2023-01-25T15:27:31.173Z,1.57
2023-01-25T15:30:36.823Z,1.46
2023-01-25T15:33:46.263Z,1.43
2023-01-25T15:36:51.978Z,1.42
2023-01-25T15:39:58.537Z,1.43
2023-01-25T15:43:04.307Z,1.41
2023-01-25T15:46:11.931Z,1.37
2023-01-25T15:49:18.479Z,1.37
2023-01-25T15:52:24.500Z,1.39
2023-01-25T15:55:30.775Z,1.42
2023-01-25T15:58:41.405Z,1.42
2023-01-25T16:01:46.572Z,1.42
2023-01-25T16:04:52.875Z,1.42
2023-01-25T16:07:58.045Z,1.39
2023-01-25T16:11:05.272Z,1.36
2023-01-25T16:14:11.060Z,1.34
2023-01-25T16:17:17.752Z,1.32
2023-01-25T16:20:24.204Z,1.27
2023-01-25T16:23:31.308Z,1.24
2023-01-25T16:26:41.069Z,1.28
2023-01-25T16:29:46.403Z,1.32
2023-01-25T16:32:51.488Z,1.41
2023-01-25T16:35:56.297Z,1.45
2023-01-25T16:39:03.522Z,1.48
2023-01-25T16:42:11.572Z,1.51
2023-01-25T16:45:19.935Z,1.55
2023-01-25T16:48:27.932Z,1.59
2023-01-25T16:51:39.263Z,1.57
2023-01-25T16:54:45.833Z,1.58
2023-01-25T16:57:52.915Z,1.59
2023-01-25T17:00:59.566Z,1.60
2023-01-25T17:04:05.439Z,1.60
2023-01-25T17:07:10.392Z,1.64
2023-01-25T17:10:17.579Z,1.67
2023-01-25T17:13:24.583Z,1.62
2023-01-25T17:16:32.779Z,1.67
2023-01-25T17:19:39.060Z,1.75
2023-01-25T17:22:47.294Z,1.79
2023-01-25T17:25:56.424Z,1.81
2023-01-25T17:29:02.781Z,1.68
2023-01-25T17:32:08.576Z,1.60
2023-01-25T17:35:14.009Z,1.53
2023-01-25T17:38:19.175Z,1.49
2023-01-25T17:41:27.137Z,1.48
2023-01-25T17:44:37.629Z,1.50
2023-01-25T17:47:45.109Z,1.55
2023-01-25T17:50:53.908Z,1.58
2023-01-25T17:53:59.647Z,1.58
2023-01-25T17:57:06.017Z,1.63
2023-01-25T18:00:13.928Z,1.57
2023-01-25T18:03:19.939Z,1.47
2023-01-25T18:06:26.673Z,1.46
2023-01-25T18:09:32.265Z,1.49
2023-01-25T18:12:37.798Z,1.51
2023-01-25T18:15:43.163Z,1.55
2023-01-25T18:18:52.548Z,1.65
2023-01-25T18:21:59.072Z,1.69
2023-01-25T18:25:08.521Z,1.66
2023-01-25T18:28:15.374Z,1.61
2023-01-25T18:31:23.819Z,1.63
2023-01-25T18:34:29.494Z,1.62
2023-01-25T18:37:37.031Z,1.54
2023-01-25T18:40:46.342Z,1.54
2023-01-25T18:43:54.930Z,1.60
2023-01-25T18:47:01.170Z,1.61
2023-01-25T18:50:07.851Z,1.59
2023-01-25T18:53:14.470Z,1.50
2023-01-25T18:56:29.961Z,1.42
2023-01-25T18:59:29.724Z,1.46
2023-01-25T19:02:24.369Z,1.49
2023-01-25T19:05:29.732Z,1.51
2023-01-25T19:08:36.224Z,1.47
2023-01-25T19:11:40.797Z,1.38
2023-01-25T19:14:47.541Z,1.32
2023-01-25T19:17:54.579Z,1.29
2023-01-25T19:21:03.274Z,1.33
2023-01-25T19:24:09.264Z,1.38
2023-01-25T19:27:15.848Z,1.41
2023-01-25T19:30:25.164Z,1.45
2023-01-25T19:33:31.513Z,1.47
2023-01-25T19:36:38.731Z,1.51
2023-01-25T19:39:45.895Z,1.57
2023-01-25T19:42:50.997Z,1.55
2023-01-25T19:45:58.165Z,1.61
2023-01-25T19:49:05.205Z,1.65
2023-01-25T19:52:13.147Z,1.61
2023-01-25T19:55:22.679Z,1.51
2023-01-25T19:58:29.891Z,1.50
2023-01-25T20:01:38.216Z,1.52
2023-01-25T20:04:44.621Z,1.51
2023-01-25T20:07:53.421Z,1.44
2023-01-25T20:11:00.771Z,1.37
2023-01-25T20:14:07.884Z,1.37
2023-01-25T20:17:14.206Z,1.36
2023-01-25T20:20:20.017Z,1.35
2023-01-25T20:23:26.068Z,1.41
2023-01-25T20:26:34.930Z,1.49
2023-01-25T20:29:42.189Z,1.57
2023-01-25T20:32:47.292Z,1.64
2023-01-25T20:35:54.391Z,1.62
2023-01-25T20:38:59.757Z,1.61
2023-01-25T20:42:07.018Z,1.60
2023-01-25T20:45:13.155Z,1.60
2023-01-25T20:48:19.895Z,1.60
2023-01-25T20:51:28.272Z,1.61
2023-01-25T20:54:35.795Z,1.61
2023-01-25T20:57:44.016Z,1.60
2023-01-25T21:00:52.159Z,1.61
2023-01-25T21:04:00.997Z,1.60
2023-01-25T21:07:06.952Z,1.59
2023-01-25T21:10:12.356Z,1.53
2023-01-25T21:13:17.447Z,1.49
2023-01-25T21:16:31.286Z,1.38
2023-01-25T21:19:37.135Z,1.29
2023-01-25T21:22:44.266Z,1.24
2023-01-25T21:25:51.284Z,1.18
2023-01-25T21:28:56.880Z,1.16
2023-01-25T21:32:05.514Z,1.15
2023-01-25T21:35:11.433Z,1.17
2023-01-25T21:38:16.985Z,1.19
2023-01-25T21:41:29.005Z,1.15
2023-01-25T21:44:53.433Z,1.20
2023-01-25T21:48:00.299Z,1.23
2023-01-25T21:51:23.685Z,1.22
2023-01-25T21:54:40.000Z,1.22
2023-01-25T21:57:48.366Z,1.21
2023-01-25T22:00:53.925Z,1.19
2023-01-25T22:04:05.083Z,1.16
2023-01-25T22:07:11.334Z,1.11
2023-01-25T22:10:17.096Z,1.11
2023-01-25T22:13:23.557Z,1.14
2023-01-25T22:16:31.348Z,1.12
2023-01-25T22:19:37.049Z,1.04
2023-01-25T22:22:42.693Z,0.99
2023-01-25T22:25:49.531Z,0.94
2023-01-25T22:29:08.986Z,0.95
2023-01-25T22:32:15.470Z,0.96
2023-01-25T22:35:23.024Z,0.95
2023-01-25T22:38:27.998Z,0.99
2023-01-25T22:41:35.929Z,1.02
2023-01-25T22:44:42.161Z,1.03
2023-01-25T22:47:49.431Z,1.04
2023-01-25T22:50:55.069Z,1.07
2023-01-25T22:54:00.657Z,1.09
2023-01-25T22:57:07.799Z,1.11
2023-01-25T23:00:12.742Z,1.13
2023-01-25T23:03:18.241Z,1.14
2023-01-25T23:06:26.484Z,1.15
2023-01-25T23:09:31.654Z,1.14
2023-01-25T23:12:36.529Z,1.11
2023-01-25T23:15:43.596Z,1.06
2023-01-25T23:19:00.428Z,1.09
2023-01-25T23:22:09.878Z,1.12
2023-01-25T23:25:16.943Z,1.13
2023-01-25T23:28:22.233Z,1.13
2023-01-25T23:31:31.552Z,1.14
2023-01-25T23:34:39.304Z,1.13
2023-01-25T23:37:44.136Z,1.11
2023-01-25T23:40:50.891Z,1.14
2023-01-25T23:43:55.696Z,1.10
2023-01-25T23:47:02.139Z,1.07
2023-01-25T23:50:08.332Z,1.06
2023-01-25T23:53:14.415Z,1.06
2023-01-25T23:56:26.476Z,1.09
2023-01-25T23:59:32.640Z,1.08
